David Evans — WDC6547 — position and weather

sailwx.info

Track history (hours):
 
Tides and Currents Weather Stations Pressure Air Temp Water Temp Dewpoint Dewpoint Depression Visibility Wind Speed Wind Dir Waves Ship Positions

David Evans

Owner: American Commercial Lines LLC, Jeffersonville, IN. More information available from US FCC via Universal Licensing System and Coast Guard Vessel Documentation Center.

Last reported at 2018-Feb-22 23:03 UTC. Time now 2018-Feb-24 09:57 UTC.
Position N 38°31' W 090°16'.

Length 55 m; draft 2.7 m.

Type: Towing. MMSI: 367057750.

Date/timePositionNaut miles runAvg speedWind from/ knotsBaromVisibWave heightAir tempDewpointWater temp
2018-Feb-22 23:03N 38°31' W 090°16'1 8.1
2018-Feb-22 22:58N 38°32' W 090°16'4 8.0
2018-Feb-22 22:27N 38°35' W 090°12'2 4.3
2018-Feb-22 22:00N 38°37' W 090°11'0 0.0
2018-Feb-22 21:18N 38°37' W 090°11'0 0.0
2018-Feb-22 20:58N 38°37' W 090°11'0 0.0
2018-Feb-22 20:30N 38°37' W 090°11'0 0.0
2018-Feb-22 20:00N 38°37' W 090°11'0 0.0
2018-Feb-22 19:28N 38°37' W 090°11'0 0.0
2018-Feb-22 19:00N 38°37' W 090°11'0 0.0
2018-Feb-22 18:26N 38°37' W 090°11'0 0.3
2018-Feb-22 17:49N 38°36' W 090°11'0 0.0
2018-Feb-22 17:26N 38°36' W 090°11'0 0.2
2018-Feb-22 17:00N 38°36' W 090°11'1 2.3
2018-Feb-22 16:26N 38°35' W 090°12'0 0.2
2018-Feb-22 13:20N 38°35' W 090°13'1 0.4
2018-Feb-22 11:20N 38°36' W 090°12'0 0.0
2018-Feb-22 10:59N 38°36' W 090°12'  
Track history (hours):
 
Tides and Currents Weather Stations Pressure Air Temp Water Temp Dewpoint Dewpoint Depression Visibility Wind Speed Wind Dir Waves Ship Positions

David Evans

Owner: American Commercial Lines LLC, Jeffersonville, IN. More information available from US FCC via Universal Licensing System and Coast Guard Vessel Documentation Center.

Last reported at 2018-Feb-22 23:03 UTC. Time now 2018-Feb-24 09:57 UTC.
Position N 38°31' W 090°16'.

Length 55 m; draft 2.7 m.

Type: Towing. MMSI: 367057750.

Date/timePositionNaut miles runAvg speedWind from/ knotsBaromVisibWave heightAir tempDewpointWater temp
2018-Feb-22 23:03N 38°31' W 090°16'1 8.1
2018-Feb-22 22:58N 38°32' W 090°16'4 8.0
2018-Feb-22 22:27N 38°35' W 090°12'2 4.3
2018-Feb-22 22:00N 38°37' W 090°11'0 0.0
2018-Feb-22 21:18N 38°37' W 090°11'0 0.0
2018-Feb-22 20:58N 38°37' W 090°11'0 0.0
2018-Feb-22 20:30N 38°37' W 090°11'0 0.0
2018-Feb-22 20:00N 38°37' W 090°11'0 0.0
2018-Feb-22 19:28N 38°37' W 090°11'0 0.0
2018-Feb-22 19:00N 38°37' W 090°11'0 0.0
2018-Feb-22 18:26N 38°37' W 090°11'0 0.3
2018-Feb-22 17:49N 38°36' W 090°11'0 0.0
2018-Feb-22 17:26N 38°36' W 090°11'0 0.2
2018-Feb-22 17:00N 38°36' W 090°11'1 2.3
2018-Feb-22 16:26N 38°35' W 090°12'0 0.2
2018-Feb-22 13:20N 38°35' W 090°13'1 0.4
2018-Feb-22 11:20N 38°36' W 090°12'0 0.0
2018-Feb-22 10:59N 38°36' W 090°12'  

Dump ship's entire track history